sensor_id;sensor_type;location;lat;lon;timestamp;P1;durP1;ratioP1;P2;durP2;ratioP2
34711;SDS011;20941;42.408;25.634;2022-08-02T00:01:28;1.75;;;0.75;;
34711;SDS011;20941;42.408;25.634;2022-08-02T00:03:54;0.60;;;0.60;;
34711;SDS011;20941;42.408;25.634;2022-08-02T00:06:19;0.60;;;0.60;;
34711;SDS011;20941;42.408;25.634;2022-08-02T00:08:45;2.78;;;0.70;;
34711;SDS011;20941;42.408;25.634;2022-08-02T00:11:11;0.55;;;0.55;;
34711;SDS011;20941;42.408;25.634;2022-08-02T00:13:37;0.50;;;0.50;;
34711;SDS011;20941;42.408;25.634;2022-08-02T00:16:02;0.60;;;0.60;;
34711;SDS011;20941;42.408;25.634;2022-08-02T00:18:28;0.77;;;0.75;;
34711;SDS011;20941;42.408;25.634;2022-08-02T00:20:54;0.98;;;0.70;;
34711;SDS011;20941;42.408;25.634;2022-08-02T00:23:19;0.55;;;0.55;;
34711;SDS011;20941;42.408;25.634;2022-08-02T00:25:45;1.55;;;0.82;;
34711;SDS011;20941;42.408;25.634;2022-08-02T00:28:11;1.52;;;0.60;;
34711;SDS011;20941;42.408;25.634;2022-08-02T00:30:36;0.60;;;0.60;;
34711;SDS011;20941;42.408;25.634;2022-08-02T00:33:02;3.08;;;1.20;;
34711;SDS011;20941;42.408;25.634;2022-08-02T00:35:29;1.83;;;1.35;;
34711;SDS011;20941;42.408;25.634;2022-08-02T00:37:55;3.15;;;1.00;;
34711;SDS011;20941;42.408;25.634;2022-08-02T00:40:21;1.60;;;0.80;;
34711;SDS011;20941;42.408;25.634;2022-08-02T00:42:58;0.75;;;0.75;;
34711;SDS011;20941;42.408;25.634;2022-08-02T00:45:36;0.73;;;0.73;;
34711;SDS011;20941;42.408;25.634;2022-08-02T00:48:03;1.00;;;1.00;;
34711;SDS011;20941;42.408;25.634;2022-08-02T00:50:30;1.10;;;1.10;;
34711;SDS011;20941;42.408;25.634;2022-08-02T00:52:56;1.00;;;1.00;;
34711;SDS011;20941;42.408;25.634;2022-08-02T00:55:22;2.97;;;1.17;;
34711;SDS011;20941;42.408;25.634;2022-08-02T00:57:48;2.45;;;1.27;;
34711;SDS011;20941;42.408;25.634;2022-08-02T01:00:14;1.27;;;1.15;;
34711;SDS011;20941;42.408;25.634;2022-08-02T01:02:39;1.20;;;1.10;;
34711;SDS011;20941;42.408;25.634;2022-08-02T01:05:05;1.00;;;0.90;;
34711;SDS011;20941;42.408;25.634;2022-08-02T01:07:31;2.47;;;1.20;;
34711;SDS011;20941;42.408;25.634;2022-08-02T01:09:57;0.80;;;0.80;;
34711;SDS011;20941;42.408;25.634;2022-08-02T01:12:24;1.10;;;0.95;;
34711;SDS011;20941;42.408;25.634;2022-08-02T01:14:49;1.45;;;0.98;;
34711;SDS011;20941;42.408;25.634;2022-08-02T01:17:33;1.33;;;1.23;;
34711;SDS011;20941;42.408;25.634;2022-08-02T01:23:13;0.90;;;0.90;;
34711;SDS011;20941;42.408;25.634;2022-08-02T01:28:35;1.58;;;1.10;;
34711;SDS011;20941;42.408;25.634;2022-08-02T01:36:37;1.10;;;1.10;;
34711;SDS011;20941;42.408;25.634;2022-08-02T01:39:07;5.88;;;1.25;;
34711;SDS011;20941;42.408;25.634;2022-08-02T01:41:35;1.10;;;1.00;;
34711;SDS011;20941;42.408;25.634;2022-08-02T01:44:02;1.33;;;1.20;;
34711;SDS011;20941;42.408;25.634;2022-08-02T01:46:29;1.73;;;1.08;;
34711;SDS011;20941;42.408;25.634;2022-08-02T01:48:57;1.20;;;1.10;;
34711;SDS011;20941;42.408;25.634;2022-08-02T01:51:26;4.03;;;1.35;;
34711;SDS011;20941;42.408;25.634;2022-08-02T01:54:12;5.03;;;1.60;;
34711;SDS011;20941;42.408;25.634;2022-08-02T01:56:41;2.05;;;1.30;;
34711;SDS011;20941;42.408;25.634;2022-08-02T01:59:10;0.88;;;0.88;;
34711;SDS011;20941;42.408;25.634;2022-08-02T02:01:39;4.55;;;1.70;;
34711;SDS011;20941;42.408;25.634;2022-08-02T02:04:07;2.90;;;1.63;;
34711;SDS011;20941;42.408;25.634;2022-08-02T02:06:36;2.92;;;1.70;;
34711;SDS011;20941;42.408;25.634;2022-08-02T02:09:02;6.15;;;2.50;;
34711;SDS011;20941;42.408;25.634;2022-08-02T02:11:29;3.28;;;1.58;;
34711;SDS011;20941;42.408;25.634;2022-08-02T02:13:59;4.32;;;1.90;;
34711;SDS011;20941;42.408;25.634;2022-08-02T02:16:27;3.08;;;1.83;;
34711;SDS011;20941;42.408;25.634;2022-08-02T02:18:53;4.40;;;1.60;;
34711;SDS011;20941;42.408;25.634;2022-08-02T02:21:19;2.22;;;1.40;;
34711;SDS011;20941;42.408;25.634;2022-08-02T02:23:44;1.60;;;1.33;;
34711;SDS011;20941;42.408;25.634;2022-08-02T02:26:11;2.17;;;1.40;;
34711;SDS011;20941;42.408;25.634;2022-08-02T02:28:40;2.45;;;1.77;;
34711;SDS011;20941;42.408;25.634;2022-08-02T02:31:09;7.03;;;2.88;;
34711;SDS011;20941;42.408;25.634;2022-08-02T02:33:39;9.63;;;4.28;;
34711;SDS011;20941;42.408;25.634;2022-08-02T02:36:08;11.10;;;3.05;;
34711;SDS011;20941;42.408;25.634;2022-08-02T02:38:35;9.32;;;3.50;;
34711;SDS011;20941;42.408;25.634;2022-08-02T02:41:02;8.23;;;3.17;;
34711;SDS011;20941;42.408;25.634;2022-08-02T02:43:31;4.97;;;2.40;;
34711;SDS011;20941;42.408;25.634;2022-08-02T02:45:58;9.50;;;3.05;;
34711;SDS011;20941;42.408;25.634;2022-08-02T02:48:27;17.42;;;3.13;;
34711;SDS011;20941;42.408;25.634;2022-08-02T02:50:54;11.85;;;2.70;;
34711;SDS011;20941;42.408;25.634;2022-08-02T02:53:20;2.63;;;1.40;;
34711;SDS011;20941;42.408;25.634;2022-08-02T02:55:47;7.70;;;1.42;;
34711;SDS011;20941;42.408;25.634;2022-08-02T02:58:13;4.82;;;1.75;;
34711;SDS011;20941;42.408;25.634;2022-08-02T03:00:40;8.90;;;1.75;;
34711;SDS011;20941;42.408;25.634;2022-08-02T03:03:24;3.95;;;1.80;;
34711;SDS011;20941;42.408;25.634;2022-08-02T03:05:50;7.57;;;2.17;;
34711;SDS011;20941;42.408;25.634;2022-08-02T03:08:15;4.88;;;1.67;;
34711;SDS011;20941;42.408;25.634;2022-08-02T03:10:41;9.95;;;2.08;;
34711;SDS011;20941;42.408;25.634;2022-08-02T03:13:08;5.70;;;1.75;;
34711;SDS011;20941;42.408;25.634;2022-08-02T03:15:34;4.88;;;1.70;;
34711;SDS011;20941;42.408;25.634;2022-08-02T03:18:01;8.32;;;1.73;;
34711;SDS011;20941;42.408;25.634;2022-08-02T03:20:26;34.83;;;4.10;;
34711;SDS011;20941;42.408;25.634;2022-08-02T03:22:52;7.72;;;2.20;;
34711;SDS011;20941;42.408;25.634;2022-08-02T03:25:17;7.75;;;1.95;;
34711;SDS011;20941;42.408;25.634;2022-08-02T03:27:43;14.27;;;2.60;;
34711;SDS011;20941;42.408;25.634;2022-08-02T03:30:10;7.22;;;2.08;;
34711;SDS011;20941;42.408;25.634;2022-08-02T03:32:37;5.30;;;2.42;;
34711;SDS011;20941;42.408;25.634;2022-08-02T03:35:04;5.75;;;2.00;;
34711;SDS011;20941;42.408;25.634;2022-08-02T03:37:31;2.83;;;2.35;;
34711;SDS011;20941;42.408;25.634;2022-08-02T03:39:59;6.25;;;1.90;;
34711;SDS011;20941;42.408;25.634;2022-08-02T03:42:26;11.73;;;2.10;;
34711;SDS011;20941;42.408;25.634;2022-08-02T03:44:53;7.80;;;2.13;;
34711;SDS011;20941;42.408;25.634;2022-08-02T03:47:22;3.50;;;1.40;;
34711;SDS011;20941;42.408;25.634;2022-08-02T03:49:48;6.25;;;1.70;;
34711;SDS011;20941;42.408;25.634;2022-08-02T03:52:17;5.07;;;1.90;;
34711;SDS011;20941;42.408;25.634;2022-08-02T03:54:43;2.50;;;1.38;;
34711;SDS011;20941;42.408;25.634;2022-08-02T03:57:09;3.92;;;1.63;;
34711;SDS011;20941;42.408;25.634;2022-08-02T03:59:39;11.25;;;2.20;;
34711;SDS011;20941;42.408;25.634;2022-08-02T04:02:08;9.75;;;2.10;;
34711;SDS011;20941;42.408;25.634;2022-08-02T04:04:34;4.18;;;1.70;;
34711;SDS011;20941;42.408;25.634;2022-08-02T04:07:00;10.30;;;2.42;;
34711;SDS011;20941;42.408;25.634;2022-08-02T04:09:26;6.53;;;1.92;;
34711;SDS011;20941;42.408;25.634;2022-08-02T04:11:51;9.77;;;2.40;;
34711;SDS011;20941;42.408;25.634;2022-08-02T04:14:16;4.45;;;2.30;;
34711;SDS011;20941;42.408;25.634;2022-08-02T04:19:08;14.27;;;3.20;;
34711;SDS011;20941;42.408;25.634;2022-08-02T04:21:39;8.63;;;2.70;;
34711;SDS011;20941;42.408;25.634;2022-08-02T04:24:06;15.25;;;6.03;;
34711;SDS011;20941;42.408;25.634;2022-08-02T04:26:35;11.10;;;3.33;;
34711;SDS011;20941;42.408;25.634;2022-08-02T04:29:02;26.77;;;4.45;;
34711;SDS011;20941;42.408;25.634;2022-08-02T04:31:29;15.55;;;2.35;;
34711;SDS011;20941;42.408;25.634;2022-08-02T04:33:55;11.27;;;3.15;;
34711;SDS011;20941;42.408;25.634;2022-08-02T04:36:21;14.40;;;2.83;;
34711;SDS011;20941;42.408;25.634;2022-08-02T04:38:48;16.58;;;2.88;;
34711;SDS011;20941;42.408;25.634;2022-08-02T04:41:14;13.68;;;3.15;;
34711;SDS011;20941;42.408;25.634;2022-08-02T04:43:39;30.33;;;4.22;;
34711;SDS011;20941;42.408;25.634;2022-08-02T04:46:05;9.23;;;2.65;;
34711;SDS011;20941;42.408;25.634;2022-08-02T04:48:30;27.15;;;4.80;;
34711;SDS011;20941;42.408;25.634;2022-08-02T04:50:56;27.60;;;4.03;;
34711;SDS011;20941;42.408;25.634;2022-08-02T04:53:21;30.60;;;4.10;;
34711;SDS011;20941;42.408;25.634;2022-08-02T04:55:47;40.58;;;6.15;;
34711;SDS011;20941;42.408;25.634;2022-08-02T04:58:13;41.97;;;6.65;;
34711;SDS011;20941;42.408;25.634;2022-08-02T05:00:39;63.25;;;10.05;;
34711;SDS011;20941;42.408;25.634;2022-08-02T05:03:05;28.05;;;4.80;;
34711;SDS011;20941;42.408;25.634;2022-08-02T05:05:31;30.63;;;5.30;;
34711;SDS011;20941;42.408;25.634;2022-08-02T05:07:57;13.82;;;3.40;;
34711;SDS011;20941;42.408;25.634;2022-08-02T05:10:22;15.55;;;4.20;;
34711;SDS011;20941;42.408;25.634;2022-08-02T05:12:48;26.58;;;3.92;;
34711;SDS011;20941;42.408;25.634;2022-08-02T05:15:14;18.70;;;3.53;;
34711;SDS011;20941;42.408;25.634;2022-08-02T05:17:42;10.95;;;2.53;;
34711;SDS011;20941;42.408;25.634;2022-08-02T05:20:11;4.80;;;2.00;;
34711;SDS011;20941;42.408;25.634;2022-08-02T05:22:38;16.02;;;3.00;;
34711;SDS011;20941;42.408;25.634;2022-08-02T05:25:04;27.73;;;5.05;;
34711;SDS011;20941;42.408;25.634;2022-08-02T05:27:30;12.80;;;2.35;;
34711;SDS011;20941;42.408;25.634;2022-08-02T05:29:57;10.60;;;2.17;;
34711;SDS011;20941;42.408;25.634;2022-08-02T05:32:26;4.30;;;1.88;;
34711;SDS011;20941;42.408;25.634;2022-08-02T05:34:52;11.70;;;2.47;;
34711;SDS011;20941;42.408;25.634;2022-08-02T05:37:17;3.95;;;2.05;;
34711;SDS011;20941;42.408;25.634;2022-08-02T05:39:43;7.72;;;1.60;;
34711;SDS011;20941;42.408;25.634;2022-08-02T05:42:09;16.48;;;2.78;;
34711;SDS011;20941;42.408;25.634;2022-08-02T05:44:34;7.65;;;2.00;;
34711;SDS011;20941;42.408;25.634;2022-08-02T05:47:00;3.20;;;1.40;;
34711;SDS011;20941;42.408;25.634;2022-08-02T05:49:25;2.95;;;1.30;;
34711;SDS011;20941;42.408;25.634;2022-08-02T05:51:53;8.18;;;1.90;;
34711;SDS011;20941;42.408;25.634;2022-08-02T05:54:30;4.78;;;1.92;;
34711;SDS011;20941;42.408;25.634;2022-08-02T05:57:00;13.50;;;2.10;;
34711;SDS011;20941;42.408;25.634;2022-08-02T06:02:36;5.10;;;1.45;;
34711;SDS011;20941;42.408;25.634;2022-08-02T06:07:42;7.95;;;1.80;;
34711;SDS011;20941;42.408;25.634;2022-08-02T06:10:10;3.85;;;1.40;;
34711;SDS011;20941;42.408;25.634;2022-08-02T06:12:41;15.07;;;2.25;;
34711;SDS011;20941;42.408;25.634;2022-08-02T06:15:14;15.52;;;1.58;;
34711;SDS011;20941;42.408;25.634;2022-08-02T06:17:42;19.48;;;2.38;;
34711;SDS011;20941;42.408;25.634;2022-08-02T06:20:09;7.82;;;2.67;;
34711;SDS011;20941;42.408;25.634;2022-08-02T06:22:36;5.25;;;1.60;;
34711;SDS011;20941;42.408;25.634;2022-08-02T06:25:06;4.78;;;1.50;;
34711;SDS011;20941;42.408;25.634;2022-08-02T06:27:32;4.80;;;1.27;;
34711;SDS011;20941;42.408;25.634;2022-08-02T06:29:59;3.40;;;1.27;;
34711;SDS011;20941;42.408;25.634;2022-08-02T06:32:26;7.82;;;1.20;;
34711;SDS011;20941;42.408;25.634;2022-08-02T06:34:52;7.22;;;1.50;;
34711;SDS011;20941;42.408;25.634;2022-08-02T06:40:06;9.88;;;1.30;;
34711;SDS011;20941;42.408;25.634;2022-08-02T06:42:47;2.22;;;1.27;;
34711;SDS011;20941;42.408;25.634;2022-08-02T06:45:22;1.42;;;0.98;;
34711;SDS011;20941;42.408;25.634;2022-08-02T06:47:48;35.05;;;3.83;;
34711;SDS011;20941;42.408;25.634;2022-08-02T06:50:15;2.85;;;1.42;;
34711;SDS011;20941;42.408;25.634;2022-08-02T06:52:42;1.55;;;1.00;;
34711;SDS011;20941;42.408;25.634;2022-08-02T06:55:07;22.92;;;3.17;;
34711;SDS011;20941;42.408;25.634;2022-08-02T06:57:33;7.82;;;1.52;;
34711;SDS011;20941;42.408;25.634;2022-08-02T06:59:59;19.52;;;2.53;;
34711;SDS011;20941;42.408;25.634;2022-08-02T07:02:29;2.38;;;1.20;;
34711;SDS011;20941;42.408;25.634;2022-08-02T07:04:56;3.55;;;1.00;;
34711;SDS011;20941;42.408;25.634;2022-08-02T07:07:22;1.48;;;1.25;;
34711;SDS011;20941;42.408;25.634;2022-08-02T07:09:48;3.75;;;1.50;;
34711;SDS011;20941;42.408;25.634;2022-08-02T07:12:16;8.57;;;1.88;;
34711;SDS011;20941;42.408;25.634;2022-08-02T07:14:41;3.25;;;1.02;;
34711;SDS011;20941;42.408;25.634;2022-08-02T07:17:13;1.48;;;0.80;;
34711;SDS011;20941;42.408;25.634;2022-08-02T07:19:38;4.13;;;1.08;;
34711;SDS011;20941;42.408;25.634;2022-08-02T07:22:05;1.40;;;0.85;;
34711;SDS011;20941;42.408;25.634;2022-08-02T07:24:30;2.90;;;1.20;;
34711;SDS011;20941;42.408;25.634;2022-08-02T07:26:56;9.82;;;3.22;;
34711;SDS011;20941;42.408;25.634;2022-08-02T07:29:22;6.35;;;1.50;;
34711;SDS011;20941;42.408;25.634;2022-08-02T07:31:48;3.53;;;0.90;;
34711;SDS011;20941;42.408;25.634;2022-08-02T07:34:14;2.65;;;1.02;;
34711;SDS011;20941;42.408;25.634;2022-08-02T07:36:39;11.63;;;3.35;;
34711;SDS011;20941;42.408;25.634;2022-08-02T07:39:08;7.07;;;1.48;;
34711;SDS011;20941;42.408;25.634;2022-08-02T07:41:35;2.15;;;1.00;;
34711;SDS011;20941;42.408;25.634;2022-08-02T07:44:00;3.90;;;1.10;;
34711;SDS011;20941;42.408;25.634;2022-08-02T07:46:26;3.60;;;1.42;;
34711;SDS011;20941;42.408;25.634;2022-08-02T07:48:52;5.25;;;1.23;;
34711;SDS011;20941;42.408;25.634;2022-08-02T07:51:19;6.07;;;1.92;;
34711;SDS011;20941;42.408;25.634;2022-08-02T07:53:47;2.75;;;1.00;;
34711;SDS011;20941;42.408;25.634;2022-08-02T07:56:13;2.67;;;0.80;;
34711;SDS011;20941;42.408;25.634;2022-08-02T07:58:42;1.35;;;0.77;;
34711;SDS011;20941;42.408;25.634;2022-08-02T08:01:08;6.47;;;1.42;;
34711;SDS011;20941;42.408;25.634;2022-08-02T08:03:33;1.48;;;0.77;;
34711;SDS011;20941;42.408;25.634;2022-08-02T08:05:59;1.10;;;1.00;;
34711;SDS011;20941;42.408;25.634;2022-08-02T08:08:24;2.58;;;0.80;;
34711;SDS011;20941;42.408;25.634;2022-08-02T08:10:50;0.88;;;0.70;;
34711;SDS011;20941;42.408;25.634;2022-08-02T08:13:15;6.50;;;1.40;;
34711;SDS011;20941;42.408;25.634;2022-08-02T08:15:41;4.32;;;0.98;;
34711;SDS011;20941;42.408;25.634;2022-08-02T08:18:07;10.80;;;1.05;;
34711;SDS011;20941;42.408;25.634;2022-08-02T08:20:33;1.35;;;0.80;;
34711;SDS011;20941;42.408;25.634;2022-08-02T08:22:59;4.75;;;0.98;;
34711;SDS011;20941;42.408;25.634;2022-08-02T08:25:24;5.13;;;0.80;;
34711;SDS011;20941;42.408;25.634;2022-08-02T08:27:50;0.77;;;0.77;;
34711;SDS011;20941;42.408;25.634;2022-08-02T08:30:17;2.53;;;0.70;;
34711;SDS011;20941;42.408;25.634;2022-08-02T08:32:44;7.43;;;1.17;;
34711;SDS011;20941;42.408;25.634;2022-08-02T08:35:10;0.90;;;0.90;;
34711;SDS011;20941;42.408;25.634;2022-08-02T08:37:36;2.28;;;0.70;;
34711;SDS011;20941;42.408;25.634;2022-08-02T08:40:06;1.75;;;0.80;;
34711;SDS011;20941;42.408;25.634;2022-08-02T08:42:33;4.40;;;1.30;;
34711;SDS011;20941;42.408;25.634;2022-08-02T08:45:05;1.67;;;1.40;;
34711;SDS011;20941;42.408;25.634;2022-08-02T08:47:35;4.15;;;1.17;;
34711;SDS011;20941;42.408;25.634;2022-08-02T08:52:45;5.20;;;1.52;;
34711;SDS011;20941;42.408;25.634;2022-08-02T08:55:13;1.23;;;0.93;;
34711;SDS011;20941;42.408;25.634;2022-08-02T08:57:41;1.35;;;0.80;;
34711;SDS011;20941;42.408;25.634;2022-08-02T09:00:10;2.60;;;0.82;;
34711;SDS011;20941;42.408;25.634;2022-08-02T09:02:37;29.52;;;4.20;;
34711;SDS011;20941;42.408;25.634;2022-08-02T09:05:10;3.22;;;2.00;;
34711;SDS011;20941;42.408;25.634;2022-08-02T09:07:38;3.42;;;1.17;;
34711;SDS011;20941;42.408;25.634;2022-08-02T09:13:26;2.90;;;1.15;;
34711;SDS011;20941;42.408;25.634;2022-08-02T09:15:59;1.98;;;1.05;;
34711;SDS011;20941;42.408;25.634;2022-08-02T09:18:37;1.10;;;1.00;;
34711;SDS011;20941;42.408;25.634;2022-08-02T09:21:05;4.57;;;2.58;;
34711;SDS011;20941;42.408;25.634;2022-08-02T09:23:39;6.07;;;1.60;;
34711;SDS011;20941;42.408;25.634;2022-08-02T09:26:10;2.35;;;1.10;;
34711;SDS011;20941;42.408;25.634;2022-08-02T09:28:38;5.07;;;1.50;;
34711;SDS011;20941;42.408;25.634;2022-08-02T09:31:09;0.80;;;0.80;;
34711;SDS011;20941;42.408;25.634;2022-08-02T09:33:38;1.88;;;0.90;;
34711;SDS011;20941;42.408;25.634;2022-08-02T09:36:05;1.55;;;0.85;;
34711;SDS011;20941;42.408;25.634;2022-08-02T09:38:38;2.53;;;1.33;;
34711;SDS011;20941;42.408;25.634;2022-08-02T09:41:05;4.85;;;1.38;;
34711;SDS011;20941;42.408;25.634;2022-08-02T09:43:43;5.18;;;0.90;;
34711;SDS011;20941;42.408;25.634;2022-08-02T09:46:16;9.20;;;1.30;;
34711;SDS011;20941;42.408;25.634;2022-08-02T09:48:54;5.47;;;1.30;;
34711;SDS011;20941;42.408;25.634;2022-08-02T09:51:27;7.25;;;3.40;;
34711;SDS011;20941;42.408;25.634;2022-08-02T09:53:59;6.95;;;2.70;;
34711;SDS011;20941;42.408;25.634;2022-08-02T09:56:27;2.15;;;1.08;;
34711;SDS011;20941;42.408;25.634;2022-08-02T09:59:07;1.42;;;1.05;;
34711;SDS011;20941;42.408;25.634;2022-08-02T10:01:33;6.43;;;1.08;;
34711;SDS011;20941;42.408;25.634;2022-08-02T10:04:04;4.72;;;1.10;;
34711;SDS011;20941;42.408;25.634;2022-08-02T10:06:36;8.05;;;2.00;;
34711;SDS011;20941;42.408;25.634;2022-08-02T10:09:03;5.00;;;2.35;;
34711;SDS011;20941;42.408;25.634;2022-08-02T10:11:33;6.03;;;1.30;;
34711;SDS011;20941;42.408;25.634;2022-08-02T10:14:03;1.42;;;0.73;;
34711;SDS011;20941;42.408;25.634;2022-08-02T10:16:33;2.67;;;0.70;;
34711;SDS011;20941;42.408;25.634;2022-08-02T10:19:00;2.20;;;0.77;;
34711;SDS011;20941;42.408;25.634;2022-08-02T10:21:39;5.78;;;1.13;;
34711;SDS011;20941;42.408;25.634;2022-08-02T10:24:14;2.23;;;0.83;;
34711;SDS011;20941;42.408;25.634;2022-08-02T10:26:44;4.70;;;1.65;;
34711;SDS011;20941;42.408;25.634;2022-08-02T10:29:14;3.72;;;1.25;;
34711;SDS011;20941;42.408;25.634;2022-08-02T10:34:23;4.72;;;3.15;;
34711;SDS011;20941;42.408;25.634;2022-08-02T10:36:53;3.75;;;1.10;;
34711;SDS011;20941;42.408;25.634;2022-08-02T10:39:20;6.05;;;1.30;;
34711;SDS011;20941;42.408;25.634;2022-08-02T10:41:47;1.90;;;0.90;;
34711;SDS011;20941;42.408;25.634;2022-08-02T10:52:29;11.10;;;1.75;;
34711;SDS011;20941;42.408;25.634;2022-08-02T10:54:58;2.67;;;1.40;;
34711;SDS011;20941;42.408;25.634;2022-08-02T10:57:31;19.48;;;3.60;;
34711;SDS011;20941;42.408;25.634;2022-08-02T11:05:03;3.25;;;1.10;;
34711;SDS011;20941;42.408;25.634;2022-08-02T11:07:37;3.60;;;1.10;;
34711;SDS011;20941;42.408;25.634;2022-08-02T11:10:29;7.10;;;1.20;;
34711;SDS011;20941;42.408;25.634;2022-08-02T11:15:49;2.63;;;1.08;;
34711;SDS011;20941;42.408;25.634;2022-08-02T11:18:21;1.00;;;0.90;;
34711;SDS011;20941;42.408;25.634;2022-08-02T11:21:13;2.90;;;0.70;;
34711;SDS011;20941;42.408;25.634;2022-08-02T11:23:47;1.50;;;0.93;;
34711;SDS011;20941;42.408;25.634;2022-08-02T11:26:59;1.20;;;0.90;;
34711;SDS011;20941;42.408;25.634;2022-08-02T11:29:00;1.00;;;0.90;;
34711;SDS011;20941;42.408;25.634;2022-08-02T11:31:27;1.88;;;0.93;;
34711;SDS011;20941;42.408;25.634;2022-08-02T11:33:53;2.17;;;1.00;;
34711;SDS011;20941;42.408;25.634;2022-08-02T11:36:19;4.85;;;1.02;;
34711;SDS011;20941;42.408;25.634;2022-08-02T11:38:45;4.63;;;1.30;;
34711;SDS011;20941;42.408;25.634;2022-08-02T11:41:17;4.80;;;1.52;;
34711;SDS011;20941;42.408;25.634;2022-08-02T11:43:44;0.93;;;0.90;;
34711;SDS011;20941;42.408;25.634;2022-08-02T11:46:13;5.00;;;0.93;;
34711;SDS011;20941;42.408;25.634;2022-08-02T11:48:39;0.82;;;0.82;;
34711;SDS011;20941;42.408;25.634;2022-08-02T11:56:10;3.97;;;0.90;;
34711;SDS011;20941;42.408;25.634;2022-08-02T11:58:36;4.53;;;0.95;;
34711;SDS011;20941;42.408;25.634;2022-08-02T12:01:02;2.50;;;1.08;;
34711;SDS011;20941;42.408;25.634;2022-08-02T12:03:35;5.55;;;1.58;;
34711;SDS011;20941;42.408;25.634;2022-08-02T12:06:04;0.90;;;0.90;;
34711;SDS011;20941;42.408;25.634;2022-08-02T12:08:31;2.15;;;1.13;;
34711;SDS011;20941;42.408;25.634;2022-08-02T12:10:59;6.47;;;1.98;;
34711;SDS011;20941;42.408;25.634;2022-08-02T12:13:27;2.78;;;1.60;;
34711;SDS011;20941;42.408;25.634;2022-08-02T12:15:53;2.35;;;1.35;;
34711;SDS011;20941;42.408;25.634;2022-08-02T12:18:39;2.92;;;1.73;;
34711;SDS011;20941;42.408;25.634;2022-08-02T12:21:31;8.15;;;3.00;;
34711;SDS011;20941;42.408;25.634;2022-08-02T12:23:56;6.95;;;2.70;;
34711;SDS011;20941;42.408;25.634;2022-08-02T12:26:22;3.30;;;1.42;;
34711;SDS011;20941;42.408;25.634;2022-08-02T12:28:51;15.68;;;5.32;;
34711;SDS011;20941;42.408;25.634;2022-08-02T12:31:21;1.60;;;1.30;;
34711;SDS011;20941;42.408;25.634;2022-08-02T12:34:13;2.35;;;0.98;;
34711;SDS011;20941;42.408;25.634;2022-08-02T12:36:42;1.35;;;0.75;;
34711;SDS011;20941;42.408;25.634;2022-08-02T12:39:13;4.63;;;1.02;;
34711;SDS011;20941;42.408;25.634;2022-08-02T12:41:41;3.08;;;1.23;;
34711;SDS011;20941;42.408;25.634;2022-08-02T12:44:13;3.80;;;1.10;;
34711;SDS011;20941;42.408;25.634;2022-08-02T12:46:44;0.90;;;0.90;;
34711;SDS011;20941;42.408;25.634;2022-08-02T12:49:31;1.25;;;0.90;;
34711;SDS011;20941;42.408;25.634;2022-08-02T12:51:57;5.60;;;0.90;;
34711;SDS011;20941;42.408;25.634;2022-08-02T12:54:23;3.40;;;1.10;;
34711;SDS011;20941;42.408;25.634;2022-08-02T12:56:51;2.03;;;1.33;;
34711;SDS011;20941;42.408;25.634;2022-08-02T12:59:31;6.80;;;2.10;;
34711;SDS011;20941;42.408;25.634;2022-08-02T13:02:03;3.72;;;2.35;;
34711;SDS011;20941;42.408;25.634;2022-08-02T13:04:34;10.05;;;3.10;;
34711;SDS011;20941;42.408;25.634;2022-08-02T13:07:00;2.40;;;1.00;;
34711;SDS011;20941;42.408;25.634;2022-08-02T13:09:25;6.35;;;2.55;;
34711;SDS011;20941;42.408;25.634;2022-08-02T13:11:51;2.10;;;1.02;;
34711;SDS011;20941;42.408;25.634;2022-08-02T13:14:17;3.63;;;1.90;;
34711;SDS011;20941;42.408;25.634;2022-08-02T13:16:43;9.70;;;3.00;;
34711;SDS011;20941;42.408;25.634;2022-08-02T13:19:12;1.80;;;1.05;;
34711;SDS011;20941;42.408;25.634;2022-08-02T13:21:41;3.55;;;1.40;;
34711;SDS011;20941;42.408;25.634;2022-08-02T13:24:17;1.92;;;1.00;;
34711;SDS011;20941;42.408;25.634;2022-08-02T13:26:42;1.92;;;0.90;;
34711;SDS011;20941;42.408;25.634;2022-08-02T13:29:09;3.38;;;1.30;;
34711;SDS011;20941;42.408;25.634;2022-08-02T13:31:38;5.18;;;1.17;;
34711;SDS011;20941;42.408;25.634;2022-08-02T13:34:07;1.02;;;0.90;;
34711;SDS011;20941;42.408;25.634;2022-08-02T13:36:34;0.77;;;0.77;;
34711;SDS011;20941;42.408;25.634;2022-08-02T13:39:00;1.10;;;1.10;;
34711;SDS011;20941;42.408;25.634;2022-08-02T13:41:28;5.13;;;1.30;;
34711;SDS011;20941;42.408;25.634;2022-08-02T13:43:53;17.20;;;2.85;;
34711;SDS011;20941;42.408;25.634;2022-08-02T13:46:19;9.25;;;1.83;;
34711;SDS011;20941;42.408;25.634;2022-08-02T13:48:44;3.08;;;1.17;;
34711;SDS011;20941;42.408;25.634;2022-08-02T13:51:10;5.35;;;2.15;;
34711;SDS011;20941;42.408;25.634;2022-08-02T13:53:37;4.65;;;1.17;;
34711;SDS011;20941;42.408;25.634;2022-08-02T13:56:03;2.60;;;1.30;;
34711;SDS011;20941;42.408;25.634;2022-08-02T13:58:29;7.28;;;2.83;;
34711;SDS011;20941;42.408;25.634;2022-08-02T14:00:54;12.32;;;3.42;;
34711;SDS011;20941;42.408;25.634;2022-08-02T14:03:19;8.70;;;3.28;;
34711;SDS011;20941;42.408;25.634;2022-08-02T14:05:48;1.25;;;1.00;;
34711;SDS011;20941;42.408;25.634;2022-08-02T14:08:15;10.65;;;3.38;;
34711;SDS011;20941;42.408;25.634;2022-08-02T14:10:41;13.75;;;6.15;;
34711;SDS011;20941;42.408;25.634;2022-08-02T14:13:07;4.18;;;2.53;;
34711;SDS011;20941;42.408;25.634;2022-08-02T14:15:32;7.85;;;3.00;;
34711;SDS011;20941;42.408;25.634;2022-08-02T14:17:58;7.95;;;2.95;;
34711;SDS011;20941;42.408;25.634;2022-08-02T14:20:24;6.00;;;2.30;;
34711;SDS011;20941;42.408;25.634;2022-08-02T14:22:49;5.10;;;2.00;;
34711;SDS011;20941;42.408;25.634;2022-08-02T14:25:15;5.30;;;1.50;;
34711;SDS011;20941;42.408;25.634;2022-08-02T14:27:43;10.18;;;4.43;;
34711;SDS011;20941;42.408;25.634;2022-08-02T14:30:10;15.13;;;5.97;;
34711;SDS011;20941;42.408;25.634;2022-08-02T14:32:38;9.88;;;2.83;;
34711;SDS011;20941;42.408;25.634;2022-08-02T14:35:03;1.88;;;1.00;;
34711;SDS011;20941;42.408;25.634;2022-08-02T14:37:29;1.20;;;0.80;;
34711;SDS011;20941;42.408;25.634;2022-08-02T14:39:54;2.40;;;1.42;;
34711;SDS011;20941;42.408;25.634;2022-08-02T14:42:20;6.13;;;1.10;;
34711;SDS011;20941;42.408;25.634;2022-08-02T14:44:45;6.55;;;2.72;;
34711;SDS011;20941;42.408;25.634;2022-08-02T14:47:11;5.57;;;2.38;;
34711;SDS011;20941;42.408;25.634;2022-08-02T14:49:36;1.35;;;1.25;;
34711;SDS011;20941;42.408;25.634;2022-08-02T14:52:02;0.98;;;0.98;;
34711;SDS011;20941;42.408;25.634;2022-08-02T14:54:27;8.10;;;3.00;;
34711;SDS011;20941;42.408;25.634;2022-08-02T14:56:55;6.50;;;2.65;;
34711;SDS011;20941;42.408;25.634;2022-08-02T14:59:21;1.95;;;0.90;;
34711;SDS011;20941;42.408;25.634;2022-08-02T15:01:47;3.65;;;1.17;;
34711;SDS011;20941;42.408;25.634;2022-08-02T15:04:12;3.10;;;0.82;;
34711;SDS011;20941;42.408;25.634;2022-08-02T15:06:38;2.25;;;1.00;;
34711;SDS011;20941;42.408;25.634;2022-08-02T15:09:03;6.00;;;1.73;;
34711;SDS011;20941;42.408;25.634;2022-08-02T15:11:29;6.18;;;1.83;;
34711;SDS011;20941;42.408;25.634;2022-08-02T15:13:54;2.05;;;1.40;;
34711;SDS011;20941;42.408;25.634;2022-08-02T15:16:22;7.60;;;2.10;;
34711;SDS011;20941;42.408;25.634;2022-08-02T15:18:48;3.83;;;1.10;;
34711;SDS011;20941;42.408;25.634;2022-08-02T15:21:14;1.25;;;1.15;;
34711;SDS011;20941;42.408;25.634;2022-08-02T15:23:40;3.88;;;2.03;;
34711;SDS011;20941;42.408;25.634;2022-08-02T15:26:06;7.22;;;3.35;;
34711;SDS011;20941;42.408;25.634;2022-08-02T15:28:31;3.80;;;1.42;;
34711;SDS011;20941;42.408;25.634;2022-08-02T15:30:57;5.78;;;2.55;;